Portada
METAR-TAF:

METAR-TAF

Aeroports :

Mécheria, Algèria

latitud: 34-56N, longitud: 000-26W, altitud: 1149 m

Observació

L'informe es va fer fa 41 minuts, a les 15:00 UTC
Vent 6 kt del Nord/Nord-Est
Temperatura 20°C
Humitat 35%
Pressió 1014 hPa
Visibilitat 10 km o més
Cel ennuvolat a una alçada de 3000 ft

METAR: DAAY 011500Z 03006KT 9999 BKN030 20/04 Q1014

Hora: 16:41 (15:41 UTC)

Pronòstic

L'informe es va fer fa 1 hora i 41 minuts, a les 14:00 UTC
Pronòstic vàlid del 01 a les 15 UTC al 01 a les 24 UTC
Vent 12 kt del Nord/Nord-Est
Visibilitat 10 km o més
Cel ennuvolat a una alçada de 3000 ft

TAF: DAAY 011400Z 0115/0124 02012KT 9999 BKN030

Observacions i pronòstics meteorològics de més de 4000 aeroports (METAR i TAF).

Les estacions disponibles són els punts grocs i vermells al mapa.

Posi el ratolí al punt desitjat per veure el nom de l'estació.

Feu clic per veure les observacions i els pronòstics meteorològics.

Per canviar el mapa: feu clic els botons verds amb una creu de color negre per apropar; al botó verd amb un guió per allunyar la imatge; o en les fletxes verdes per a mapes adjacents.


METAR-TAF: